Time;durP1;ratioP1;P1;durP2;ratioP2;P2;SDS_P1;SDS_P2;PMS_P1;PMS_P2;Temp;Humidity;BMP_temperature;BMP_pressure;BME280_temperature;BME280_humidity;BME280_pressure;Samples;Min_cycle;Max_cycle;Signal;HPM_P1;HPM_P2
2022/10/12 00:01:40;;;;;;;16.97;14.10;;;;;;;6.75;100.00;97079.13;6188015;23;20457;-79
2022/10/12 00:04:07;;;;;;;16.40;12.40;;;;;;;6.42;100.00;97024.91;6214882;23;20385;-79
2022/10/12 00:06:34;;;;;;;13.30;11.03;;;;;;;6.79;100.00;97053.84;6213281;23;20402;-79
2022/10/12 00:09:00;;;;;;;11.70;10.50;;;;;;;6.74;100.00;97061.00;6187829;23;20425;-79
2022/10/12 00:11:28;;;;;;;19.00;11.83;;;;;;;6.87;100.00;97085.81;6212729;23;20402;-79
2022/10/12 00:13:57;;;;;;;16.40;11.53;;;;;;;6.56;100.00;97051.28;6214477;23;20382;-79
2022/10/12 00:16:24;;;;;;;20.20;13.23;;;;;;;6.69;100.00;97079.50;6212523;23;20911;-79
2022/10/12 00:18:55;;;;;;;19.60;11.73;;;;;;;6.70;100.00;97065.28;6212661;23;20406;-78
2022/10/12 00:21:23;;;;;;;14.93;13.13;;;;;;;6.72;100.00;97069.19;6187633;23;20432;-78
2022/10/12 00:23:50;;;;;;;13.03;11.70;;;;;;;6.82;100.00;97079.56;6212774;23;20751;-78
2022/10/12 00:26:19;;;;;;;16.03;11.30;;;;;;;6.68;100.00;97060.31;6212689;23;20402;-79
2022/10/12 00:28:46;;;;;;;14.73;12.80;;;;;;;6.89;100.00;97079.22;6214327;23;20426;-79
2022/10/12 00:31:16;;;;;;;17.17;12.97;;;;;;;6.61;100.00;97080.09;6214352;23;20379;-79
2022/10/12 00:33:43;;;;;;;12.80;11.37;;;;;;;6.53;100.00;97073.63;6212760;23;20385;-78
2022/10/12 00:36:25;;;;;;;14.43;11.43;;;;;;;6.28;100.00;97045.81;6212638;23;20714;-79
2022/10/12 00:38:53;;;;;;;19.47;13.37;;;;;;;6.25;100.00;97035.84;6214085;23;20428;-78
2022/10/12 00:41:23;;;;;;;19.10;12.50;;;;;;;6.49;100.00;97055.00;6187286;23;20418;-79
2022/10/12 00:43:51;;;;;;;22.43;13.90;;;;;;;6.46;100.00;97070.56;6187107;23;20436;-79
2022/10/12 00:46:33;;;;;;;25.50;14.60;;;;;;;6.38;100.00;97066.69;6187142;23;20790;-79
2022/10/12 00:49:10;;;;;;;19.53;13.47;;;;;;;6.16;100.00;97046.22;6162670;23;20429;-78
2022/10/12 00:51:39;;;;;;;17.53;11.83;;;;;;;6.30;100.00;97067.34;6187740;23;20453;-79
2022/10/12 00:54:10;;;;;;;15.10;13.50;;;;;;;6.06;100.00;97017.44;6162532;23;20409;-79
2022/10/12 00:56:40;;;;;;;14.57;12.47;;;;;;;6.19;100.00;97031.75;6187375;23;20373;-78
2022/10/12 00:59:11;;;;;;;18.77;13.00;;;;;;;6.22;100.00;97034.59;6187004;23;20418;-78
2022/10/12 01:01:38;;;;;;;19.40;12.20;;;;;;;6.44;100.00;97062.19;6162025;23;20422;-78
2022/10/12 01:04:06;;;;;;;18.70;13.30;;;;;;;6.17;100.00;97020.75;6213270;23;20857;-79
2022/10/12 01:06:34;;;;;;;17.13;12.80;;;;;;;6.28;100.00;97060.78;6186820;23;20412;-79
2022/10/12 01:09:01;;;;;;;17.00;13.00;;;;;;;6.27;100.00;97067.09;6162252;23;20461;-78
2022/10/12 01:11:28;;;;;;;18.30;14.20;;;;;;;6.31;100.00;97055.75;6162570;23;20780;-78
2022/10/12 01:13:55;;;;;;;16.10;12.90;;;;;;;6.14;100.00;97048.34;6187424;23;20719;-78
2022/10/12 01:16:50;;;;;;;18.23;13.13;;;;;;;5.57;100.00;97000.06;6186943;23;20486;-78
2022/10/12 01:19:41;;;;;;;24.40;15.63;;;;;;;5.89;100.00;97069.56;6162233;23;20414;-78
2022/10/12 01:22:19;;;;;;;23.10;15.00;;;;;;;5.58;100.00;97019.19;6190952;23;20465;-79
2022/10/12 01:25:04;;;;;;;17.50;12.80;;;;;;;5.66;100.00;97042.22;6237709;23;20369;-78
2022/10/12 01:27:49;;;;;;;21.67;14.23;;;;;;;6.00;100.00;97067.63;6187772;23;20389;-80
2022/10/12 01:30:16;;;;;;;19.43;14.13;;;;;;;5.95;100.00;97060.59;6212062;23;20402;-79
2022/10/12 01:33:01;;;;;;;18.57;13.27;;;;;;;5.86;100.00;97063.00;6202514;23;20362;-79
2022/10/12 01:35:41;;;;;;;24.70;15.50;;;;;;;5.89;100.00;97064.31;6202114;23;20729;-79
2022/10/12 01:38:17;;;;;;;19.00;13.30;;;;;;;5.52;100.00;97021.09;6213279;23;20366;-79
2022/10/12 01:40:54;;;;;;;18.77;14.33;;;;;;;5.82;100.00;97066.47;6213359;23;20508;-79
2022/10/12 01:43:22;;;;;;;16.03;13.50;;;;;;;5.85;100.00;97058.81;6162135;23;20477;-79
2022/10/12 01:45:49;;;;;;;19.33;13.30;;;;;;;5.57;100.00;97015.81;6186983;23;20509;-78
2022/10/12 01:48:16;;;;;;;31.93;16.30;;;;;;;5.63;100.00;97006.84;6186607;23;20409;-79
2022/10/12 01:50:51;;;;;;;18.73;14.40;;;;;;;6.06;100.00;97059.44;6186340;23;20867;-78
2022/10/12 01:53:17;;;;;;;16.03;13.93;;;;;;;6.05;100.00;97059.72;6213213;23;20461;-79
2022/10/12 01:55:47;;;;;;;17.70;13.17;;;;;;;6.12;100.00;97054.91;6161864;23;20850;-79
2022/10/12 01:58:13;;;;;;;14.83;12.60;;;;;;;5.89;100.00;97049.34;6213518;23;20736;-79
2022/10/12 02:01:01;;;;;;;17.10;14.03;;;;;;;5.62;100.00;97051.72;6186326;23;20426;-78
2022/10/12 02:03:40;;;;;;;18.17;12.13;;;;;;;5.71;100.00;97041.38;6186275;23;20393;-79
2022/10/12 02:06:12;;;;;;;18.77;12.57;;;;;;;5.69;100.00;97015.44;6161651;23;20398;-78
2022/10/12 02:09:18;;;;;;;17.87;13.13;;;;;;;5.60;100.00;97036.22;6186385;23;20534;-79
2022/10/12 02:11:47;;;;;;;18.73;12.53;;;;;;;5.23;100.00;96994.09;6186268;23;20398;-78
2022/10/12 02:14:21;;;;;;;14.67;10.70;;;;;;;5.26;100.00;96985.66;6161933;23;20402;-78
2022/10/12 02:17:00;;;;;;;13.57;10.77;;;;;;;5.64;100.00;97045.13;6188015;23;20402;-78
2022/10/12 02:19:34;;;;;;;18.40;10.53;;;;;;;5.26;100.00;97012.66;6215481;23;20469;-78
2022/10/12 02:22:05;;;;;;;12.30;10.50;;;;;;;5.39;100.00;97045.34;6188634;23;20500;-78
2022/10/12 02:24:34;;;;;;;16.30;10.40;;;;;;;5.40;100.00;97053.97;6164036;23;20404;-78
2022/10/12 02:27:02;;;;;;;11.17;9.20;;;;;;;5.27;100.00;97040.44;6188603;23;20398;-78
2022/10/12 02:29:35;;;;;;;14.10;11.30;;;;;;;5.19;100.00;97025.28;6215053;23;20888;-78
2022/10/12 02:32:42;;;;;;;14.13;11.70;;;;;;;5.13;100.00;97012.50;6188424;23;20390;-78
2022/10/12 02:35:12;;;;;;;14.87;11.07;;;;;;;5.44;100.00;97044.50;6214762;23;20485;-78
2022/10/12 02:38:00;;;;;;;14.53;10.40;;;;;;;5.39;100.00;97016.50;6188573;23;20386;-78
2022/10/12 02:40:55;;;;;;;14.30;11.27;;;;;;;5.66;100.00;97038.81;6204964;23;20548;-78
2022/10/12 02:43:44;;;;;;;16.90;11.97;;;;;;;5.55;100.00;97017.13;6213782;23;20394;-78
2022/10/12 02:46:11;;;;;;;20.37;12.20;;;;;;;5.43;100.00;97025.38;6188339;23;20397;-78
2022/10/12 02:48:40;;;;;;;15.83;11.70;;;;;;;5.55;100.00;97025.78;6214877;23;20402;-78
2022/10/12 02:51:09;;;;;;;15.60;12.10;;;;;;;5.25;100.00;97012.94;6214784;23;20379;-78
2022/10/12 02:53:37;;;;;;;22.53;14.37;;;;;;;5.27;100.00;97022.09;6213351;23;20386;-78
2022/10/12 02:56:09;;;;;;;23.33;14.73;;;;;;;4.85;100.00;96943.28;6188289;23;20418;-78
2022/10/12 02:58:36;;;;;;;22.07;14.97;;;;;;;5.43;100.00;97008.84;6213206;23;20425;-78
2022/10/12 03:01:03;;;;;;;20.03;14.10;;;;;;;5.30;100.00;96990.06;6215495;23;20496;-78
2022/10/12 03:03:30;;;;;;;25.50;14.50;;;;;;;5.22;100.00;96966.31;6213556;23;20422;-78
2022/10/12 03:05:56;;;;;;;16.10;12.97;;;;;;;5.49;100.00;97023.50;6213324;23;20439;-78
2022/10/12 03:08:23;;;;;;;17.23;12.83;;;;;;;5.21;100.00;96983.09;6188581;23;20408;-78
2022/10/12 03:10:50;;;;;;;23.97;14.67;;;;;;;5.31;100.00;96978.53;6220185;23;20412;-79
2022/10/12 03:13:16;;;;;;;20.30;13.30;;;;;;;5.20;100.00;97003.25;6237164;23;20441;-78
2022/10/12 03:15:43;;;;;;;16.00;12.47;;;;;;;5.11;100.00;97018.03;6235633;23;20394;-78
2022/10/12 03:18:10;;;;;;;15.00;11.10;;;;;;;4.93;100.00;96993.25;6235366;23;20390;-78
2022/10/12 03:20:36;;;;;;;22.23;12.80;;;;;;;4.80;100.00;96985.22;6208646;23;20430;-78
2022/10/12 03:23:03;;;;;;;16.30;12.73;;;;;;;4.96;100.00;96978.84;6235291;23;20425;-78
2022/10/12 03:25:30;;;;;;;14.57;12.23;;;;;;;4.77;100.00;96942.00;6233756;23;20457;-78
2022/10/12 03:27:56;;;;;;;15.03;11.83;;;;;;;5.09;100.00;96999.19;6189986;23;20429;-78
2022/10/12 03:30:23;;;;;;;14.47;12.47;;;;;;;4.98;100.00;97006.31;6213229;23;20896;-78
2022/10/12 03:32:49;;;;;;;14.03;11.30;;;;;;;4.71;100.00;96979.78;6188096;23;20408;-78
2022/10/12 03:35:16;;;;;;;19.47;13.07;;;;;;;4.63;100.00;96975.91;6212733;23;20882;-78
2022/10/12 03:37:43;;;;;;;16.97;13.07;;;;;;;4.57;100.00;96955.25;6212741;23;20887;-78
2022/10/12 03:40:10;;;;;;;15.60;10.73;;;;;;;4.87;100.00;96994.34;6212467;23;20440;-79
2022/10/12 03:42:37;;;;;;;16.10;12.50;;;;;;;5.18;100.00;97002.75;6214305;23;20465;-78
2022/10/12 03:45:04;;;;;;;14.00;9.73;;;;;;;4.90;100.00;96983.31;6214444;23;20382;-78
2022/10/12 03:47:30;;;;;;;19.50;10.43;;;;;;;4.88;100.00;96995.91;6214423;23;20390;-78
2022/10/12 03:49:57;;;;;;;13.23;9.30;;;;;;;4.94;100.00;97004.50;6214145;23;20453;-78
2022/10/12 03:52:24;;;;;;;12.80;11.20;;;;;;;4.95;100.00;96991.16;6212779;23;20501;-78
2022/10/12 03:54:50;;;;;;;12.47;9.27;;;;;;;5.14;100.00;97037.66;6214401;23;20781;-78
2022/10/12 03:57:17;;;;;;;10.23;8.50;;;;;;;4.84;100.00;97030.78;6212667;23;20708;-78
2022/10/12 03:59:44;;;;;;;16.60;8.80;;;;;;;4.91;100.00;97031.25;6218485;23;20441;-80
2022/10/12 04:02:10;;;;;;;9.53;8.60;;;;;;;4.52;100.00;96971.00;6218721;23;20450;-79
2022/10/12 04:04:42;;;;;;;11.53;7.87;;;;;;;4.06;100.00;96885.66;6218881;23;20370;-79
2022/10/12 04:07:09;;;;;;;9.47;7.93;;;;;;;4.70;100.00;96978.22;6216834;23;20386;-80
2022/10/12 04:09:36;;;;;;;10.50;8.13;;;;;;;5.02;100.00;97014.41;6218264;23;20410;-79
2022/10/12 04:12:03;;;;;;;14.57;8.87;;;;;;;4.96;100.00;97000.56;6216476;23;20421;-79
2022/10/12 04:14:29;;;;;;;14.53;8.80;;;;;;;4.81;100.00;97029.50;6216101;23;20398;-79
2022/10/12 04:16:56;;;;;;;17.40;11.10;;;;;;;4.77;100.00;97010.13;6216572;23;20410;-79
2022/10/12 04:19:23;;;;;;;15.93;11.50;;;;;;;4.76;100.00;97011.19;6216378;23;20504;-79
2022/10/12 04:21:49;;;;;;;15.67;11.40;;;;;;;4.40;100.00;96972.09;6215820;23;20441;-79
2022/10/12 04:24:16;;;;;;;16.83;10.20;;;;;;;4.18;100.00;96942.13;6216449;23;20381;-79
2022/10/12 04:26:42;;;;;;;17.43;11.10;;;;;;;4.88;100.00;97034.44;6216585;23;20895;-79
2022/10/12 04:29:12;;;;;;;13.00;10.20;;;;;;;4.96;100.00;97039.88;6217006;23;20504;-79
2022/10/12 04:31:39;;;;;;;21.20;16.60;;;;;;;4.48;100.00;96949.81;6218749;23;20823;-79
2022/10/12 04:34:07;;;;;;;22.47;19.83;;;;;;;4.98;100.00;97031.75;6217285;23;20879;-79
2022/10/12 04:36:34;;;;;;;23.43;16.07;;;;;;;4.87;100.00;97038.88;6217176;23;20409;-79
2022/10/12 04:39:01;;;;;;;14.50;10.43;;;;;;;4.70;100.00;97039.25;6217107;23;20437;-78
2022/10/12 04:41:28;;;;;;;13.10;10.80;;;;;;;4.35;100.00;97003.53;6162555;23;20484;-78
2022/10/12 04:43:54;;;;;;;13.70;9.80;;;;;;;4.23;100.00;97005.69;6162527;23;20920;-78
2022/10/12 04:46:21;;;;;;;14.03;9.83;;;;;;;4.45;100.00;97034.91;6187327;23;20393;-78
2022/10/12 04:48:48;;;;;;;14.90;11.03;;;;;;;4.42;100.00;97001.44;6187266;23;20818;-78
2022/10/12 04:51:14;;;;;;;11.80;9.37;;;;;;;4.37;100.00;97009.28;6213579;23;20382;-78
2022/10/12 04:53:41;;;;;;;18.03;10.60;;;;;;;4.21;100.00;96986.06;6162454;23;20412;-78
2022/10/12 04:56:08;;;;;;;10.37;9.27;;;;;;;4.55;100.00;97041.94;6187433;23;20382;-78
2022/10/12 04:58:35;;;;;;;18.70;9.53;;;;;;;4.49;100.00;97048.25;6213613;23;20444;-78
2022/10/12 05:01:02;;;;;;;10.63;8.87;;;;;;;4.41;100.00;97052.22;6187002;23;20769;-78
2022/10/12 05:03:29;;;;;;;13.53;10.23;;;;;;;4.12;100.00;97006.78;6162112;23;20782;-78
2022/10/12 05:05:55;;;;;;;12.50;10.63;;;;;;;3.93;100.00;96969.97;6187593;23;20481;-78
2022/10/12 05:08:22;;;;;;;19.17;12.87;;;;;;;4.23;100.00;97012.75;6187510;23;20416;-78
2022/10/12 05:10:48;;;;;;;20.03;14.87;;;;;;;4.28;100.00;97023.22;6187076;23;20497;-79
2022/10/12 05:13:15;;;;;;;17.30;11.80;;;;;;;4.27;100.00;97008.53;6187078;23;20496;-78
2022/10/12 05:15:43;;;;;;;18.80;13.37;;;;;;;4.63;100.00;97044.00;6213947;23;20951;-78
2022/10/12 05:18:10;;;;;;;15.57;12.67;;;;;;;4.51;100.00;97050.59;6163024;23;20442;-78
2022/10/12 05:20:36;;;;;;;18.90;15.47;;;;;;;4.22;100.00;97011.19;6186818;23;20488;-78
2022/10/12 05:23:03;;;;;;;18.13;13.77;;;;;;;3.76;100.00;96944.13;6186524;23;20406;-78
2022/10/12 05:25:30;;;;;;;18.27;12.20;;;;;;;4.32;100.00;97011.16;6213361;23;20881;-78
2022/10/12 05:27:57;;;;;;;13.30;12.00;;;;;;;4.55;100.00;97059.50;6186924;23;20892;-77
2022/10/12 05:30:24;;;;;;;20.03;13.47;;;;;;;4.29;100.00;97015.09;6213608;23;20406;-78
2022/10/12 05:32:50;;;;;;;14.93;13.03;;;;;;;4.65;100.00;97047.13;6161627;23;20439;-78
2022/10/12 05:35:17;;;;;;;16.03;12.07;;;;;;;4.40;100.00;97008.75;6213325;23;20856;-78
2022/10/12 05:37:44;;;;;;;18.80;12.30;;;;;;;4.48;100.00;97025.75;6213222;23;20383;-77
2022/10/12 05:40:11;;;;;;;16.50;12.87;;;;;;;4.36;100.00;96994.63;6213141;23;20468;-78
2022/10/12 05:42:37;;;;;;;14.67;11.50;;;;;;;4.83;100.00;97052.81;6161948;23;20441;-78
2022/10/12 05:45:05;;;;;;;16.80;12.40;;;;;;;3.92;100.00;96968.41;6187195;23;20726;-78
2022/10/12 05:47:32;;;;;;;15.20;12.20;;;;;;;4.04;100.00;97031.66;6161955;23;20405;-78
2022/10/12 05:49:58;;;;;;;13.17;11.07;;;;;;;3.87;100.00;97023.31;6186784;23;20424;-78
2022/10/12 05:52:25;;;;;;;18.67;14.10;;;;;;;3.95;100.00;97014.94;6186339;23;20402;-78
2022/10/12 05:54:52;;;;;;;17.37;12.60;;;;;;;4.11;100.00;97034.00;6213321;23;20379;-78
2022/10/12 05:57:19;;;;;;;12.63;10.80;;;;;;;4.27;100.00;97035.50;6186844;23;20477;-78
2022/10/12 05:59:46;;;;;;;11.70;10.50;;;;;;;4.08;100.00;97017.00;6162035;23;20436;-76
2022/10/12 06:02:15;;;;;;;13.53;11.50;;;;;;;4.37;100.00;97047.78;6163490;23;20454;-78
2022/10/12 06:04:42;;;;;;;14.33;10.67;;;;;;;4.12;100.00;96998.91;6163388;23;20402;-78
2022/10/12 06:07:09;;;;;;;20.87;11.80;;;;;;;4.54;100.00;97055.28;6188958;23;20402;-78
2022/10/12 06:09:38;;;;;;;17.27;11.90;;;;;;;4.58;100.00;97059.75;6224506;23;20429;-78
2022/10/12 06:12:06;;;;;;;17.13;14.07;;;;;;;4.56;100.00;97056.59;6197291;23;20375;-78
2022/10/12 06:14:33;;;;;;;24.43;13.30;;;;;;;4.58;100.00;97041.41;6197868;23;20444;-78
2022/10/12 06:16:59;;;;;;;16.00;12.30;;;;;;;4.56;100.00;97042.72;6174386;23;20406;-78
2022/10/12 06:19:26;;;;;;;17.43;12.00;;;;;;;4.46;100.00;97035.69;6171585;23;20763;-78
2022/10/12 06:21:53;;;;;;;36.47;26.77;;;;;;;4.42;100.00;97037.31;6189420;23;20430;-78
2022/10/12 06:24:19;;;;;;;38.53;26.63;;;;;;;4.41;100.00;97028.66;6163472;23;20398;-78
2022/10/12 06:26:46;;;;;;;37.37;24.07;;;;;;;4.48;100.00;97032.81;6188666;23;20489;-78
2022/10/12 06:29:12;;;;;;;33.60;22.43;;;;;;;4.47;100.00;97060.03;6188198;23;20418;-79
2022/10/12 06:31:39;;;;;;;27.40;19.70;;;;;;;4.10;100.00;97020.13;6188100;23;20728;-78
2022/10/12 06:34:06;;;;;;;18.50;15.20;;;;;;;4.21;100.00;97046.28;6187742;23;20833;-79
2022/10/12 06:36:33;;;;;;;22.23;14.20;;;;;;;4.14;100.00;97005.47;6188434;23;20382;-78
2022/10/12 06:38:59;;;;;;;18.27;11.07;;;;;;;4.51;100.00;97055.84;6163022;23;20761;-79
2022/10/12 06:41:26;;;;;;;12.40;11.10;;;;;;;4.40;100.00;97039.38;6188017;23;20418;-79
2022/10/12 06:43:53;;;;;;;17.80;11.80;;;;;;;4.31;100.00;97039.16;6163349;23;20453;-79
2022/10/12 06:46:19;;;;;;;18.60;13.13;;;;;;;4.29;100.00;97046.50;6163532;23;20986;-79
2022/10/12 06:48:46;;;;;;;20.30;12.80;;;;;;;4.17;100.00;97009.38;6163260;23;20504;-79
2022/10/12 06:51:13;;;;;;;20.73;13.83;;;;;;;4.27;100.00;97019.00;6187790;23;20445;-79
2022/10/12 06:53:39;;;;;;;18.00;13.53;;;;;;;4.69;100.00;97061.25;6188082;23;20489;-78
2022/10/12 06:56:08;;;;;;;19.33;13.00;;;;;;;4.99;100.00;97075.25;6163132;23;20402;-79
2022/10/12 06:58:34;;;;;;;18.00;12.93;;;;;;;4.75;100.00;96999.13;6187870;23;20426;-79
2022/10/12 07:01:02;;;;;;;14.07;12.57;;;;;;;5.54;100.00;97084.56;6214252;23;20486;-79
2022/10/12 07:03:30;;;;;;;19.17;13.43;;;;;;;5.63;100.00;97069.00;6188956;23;20911;-78
2022/10/12 07:06:10;;;;;;;22.97;13.07;;;;;;;5.43;100.00;97043.72;6164873;23;20501;-79
2022/10/12 07:08:39;;;;;;;23.90;14.00;;;;;;;5.84;100.00;97085.34;6164934;23;20501;-78
2022/10/12 07:11:09;;;;;;;22.60;13.93;;;;;;;5.93;100.00;97084.50;6165000;23;20444;-79
2022/10/12 07:13:36;;;;;;;14.40;11.70;;;;;;;5.98;100.00;97078.41;6190151;23;20417;-78
2022/10/12 07:16:03;;;;;;;22.03;12.47;;;;;;;5.80;100.00;97048.38;6164953;23;20406;-78
2022/10/12 07:18:29;;;;;;;16.17;11.40;;;;;;;6.10;100.00;97084.06;6190317;23;20529;-78
2022/10/12 07:20:58;;;;;;;18.30;12.00;;;;;;;6.09;100.00;97066.75;6189817;23;20395;-79
2022/10/12 07:23:26;;;;;;;15.80;10.87;;;;;;;6.26;100.00;97087.31;6189904;23;20861;-79
2022/10/12 07:25:53;;;;;;;16.30;12.50;;;;;;;6.00;100.00;97036.91;6190071;23;20410;-78
2022/10/12 07:28:20;;;;;;;14.50;12.47;;;;;;;6.36;100.00;97076.69;6189657;23;20493;-78
2022/10/12 07:30:47;;;;;;;15.67;12.37;;;;;;;6.25;100.00;97062.13;6189796;23;20404;-79
2022/10/12 07:33:14;;;;;;;22.43;15.20;;;;;;;6.05;100.00;97021.13;6190115;23;20856;-79
2022/10/12 07:35:41;;;;;;;13.40;11.70;;;;;;;6.29;100.00;97033.47;6189839;23;20398;-78
2022/10/12 07:38:28;;;;;;;13.80;12.37;;;;;;;6.54;100.00;97080.44;6169156;23;20429;-79
2022/10/12 07:41:01;;;;;;;13.00;11.53;;;;;;;6.50;100.00;97061.81;6212739;23;20484;-78
2022/10/12 07:43:29;;;;;;;18.73;11.57;;;;;;;6.56;100.00;97074.91;6214706;23;20747;-78
2022/10/12 07:45:56;;;;;;;17.40;11.47;;;;;;;6.61;100.00;97080.09;6214441;23;20402;-79
2022/10/12 07:48:23;;;;;;;13.40;10.53;;;;;;;6.44;100.00;97036.69;6214709;23;20463;-79
2022/10/12 07:50:49;;;;;;;14.30;9.77;;;;;;;6.76;100.00;97064.91;6216370;23;20382;-79
2022/10/12 07:53:16;;;;;;;14.93;8.87;;;;;;;6.89;100.00;97060.81;6214694;23;20717;-79
2022/10/12 07:55:43;;;;;;;14.33;8.73;;;;;;;7.38;100.00;97091.94;6215244;23;20791;-78
2022/10/12 07:58:09;;;;;;;22.80;10.40;;;;;;;7.56;100.00;97106.13;6214975;23;20410;-79
2022/10/12 08:00:36;;;;;;;16.13;9.57;;;;;;;7.66;100.00;97105.19;6216579;23;20436;-79
2022/10/12 08:03:03;;;;;;;11.53;8.23;;;;;;;7.74;100.00;97098.47;6190023;23;20437;-79
2022/10/12 08:05:29;;;;;;;9.67;7.97;;;;;;;7.78;100.00;97075.78;6215125;23;20504;-79
2022/10/12 08:07:56;;;;;;;16.70;8.40;;;;;;;7.84;100.00;97072.75;6221287;23;20890;-79
2022/10/12 08:10:23;;;;;;;14.33;8.20;;;;;;;7.83;100.00;97065.94;6196985;23;20430;-79
2022/10/12 08:12:49;;;;;;;11.50;7.93;;;;;;;8.29;100.00;97121.22;6221874;23;20875;-79
2022/10/12 08:15:18;;;;;;;13.87;9.60;;;;;;;8.32;100.00;97121.72;6194199;23;20489;-79
2022/10/12 08:17:44;;;;;;;21.40;8.00;;;;;;;7.72;100.00;97033.75;6193115;23;20802;-79
2022/10/12 08:20:11;;;;;;;12.20;7.70;;;;;;;8.18;100.00;97095.38;6192251;23;20456;-79
2022/10/12 08:22:37;;;;;;;10.83;7.23;;;;;;;7.75;100.00;97036.88;6215949;23;20426;-79
2022/10/12 08:25:05;;;;;;;11.70;8.73;;;;;;;7.95;100.00;97091.81;6219991;23;20414;-79
2022/10/12 08:27:32;;;;;;;14.50;9.27;;;;;;;7.98;100.00;97088.59;6216473;23;20779;-79
2022/10/12 08:29:58;;;;;;;16.33;7.47;;;;;;;8.06;100.00;97103.72;6216601;23;20409;-79
2022/10/12 08:32:25;;;;;;;11.93;8.13;;;;;;;7.92;100.00;97081.84;6216920;23;20406;-79
2022/10/12 08:34:52;;;;;;;10.07;9.03;;;;;;;8.00;100.00;97081.94;6190266;23;20497;-79
2022/10/12 08:37:18;;;;;;;12.70;9.20;;;;;;;8.20;100.00;97094.00;6215161;23;20522;-79
2022/10/12 08:39:45;;;;;;;13.23;7.83;;;;;;;8.28;100.00;97059.06;6216506;23;20440;-80
2022/10/12 08:42:15;;;;;;;16.73;7.90;;;;;;;8.59;100.00;97098.03;6230002;23;20443;-79
2022/10/12 08:44:41;;;;;;;11.77;7.93;;;;;;;8.84;100.00;97099.38;6196391;23;20484;-79
2022/10/12 08:47:21;;;;;;;9.43;8.43;;;;;;;8.88;100.00;97080.03;6192109;23;20398;-79
2022/10/12 08:49:49;;;;;;;9.40;7.70;;;;;;;8.68;100.00;97032.22;6230084;23;20457;-79
2022/10/12 08:52:40;;;;;;;8.90;6.37;;;;;;;9.26;100.00;97089.50;6192431;23;20715;-80
2022/10/12 08:55:31;;;;;;;14.07;6.60;;;;;;;9.21;100.00;97060.59;6214091;23;20453;-79
2022/10/12 08:57:58;;;;;;;12.40;6.30;;;;;;;9.54;100.00;97071.72;6214282;23;20367;-79
2022/10/12 09:00:28;;;;;;;10.63;6.03;;;;;;;9.89;100.00;97085.91;6213779;23;20430;-80
2022/10/12 09:03:16;;;;;;;8.43;4.97;;;;;;;10.04;100.00;97088.94;6215881;23;20418;-79
2022/10/12 09:05:49;;;;;;;11.77;5.60;;;;;;;10.18;100.00;97093.38;6214105;23;20373;-79
2022/10/12 09:08:37;;;;;;;7.27;5.30;;;;;;;10.18;100.00;97064.28;6213971;23;20429;-79
2022/10/12 09:11:28;;;;;;;5.73;4.60;;;;;;;10.53;100.00;97097.72;6189587;23;20422;-80
2022/10/12 09:13:59;;;;;;;8.13;5.60;;;;;;;10.32;100.00;97073.72;6214256;23;20484;-80
2022/10/12 09:16:30;;;;;;;13.43;5.40;;;;;;;10.32;100.00;97094.84;6215641;23;20453;-79
2022/10/12 09:19:02;;;;;;;8.67;5.80;;;;;;;10.29;100.00;97062.97;6213942;23;20426;-80
2022/10/12 09:21:31;;;;;;;12.73;4.77;;;;;;;10.31;100.00;97072.16;6214716;23;20720;-79
2022/10/12 09:23:59;;;;;;;6.17;5.57;;;;;;;10.37;100.00;97062.22;6214484;23;20484;-80
2022/10/12 09:26:36;;;;;;;10.30;5.93;;;;;;;10.77;100.00;97091.25;6189051;23;20401;-80
2022/10/12 09:29:13;;;;;;;7.07;5.10;;;;;;;10.73;100.00;97087.66;6214139;23;20767;-80
2022/10/12 09:32:01;;;;;;;12.33;4.80;;;;;;;11.05;100.00;97095.19;6214129;23;20401;-80
2022/10/12 09:34:28;;;;;;;12.13;5.70;;;;;;;11.11;100.00;97067.50;6214806;23;20438;-80
2022/10/12 09:36:55;;;;;;;11.43;6.40;;;;;;;11.21;100.00;97076.97;6215188;23;20414;-80
2022/10/12 09:39:30;;;;;;;12.20;6.70;;;;;;;11.43;100.00;97095.38;6214558;23;20437;-80
2022/10/12 09:41:56;;;;;;;11.07;6.37;;;;;;;11.36;100.00;97075.75;6189448;23;20389;-80
2022/10/12 09:44:39;;;;;;;8.33;6.23;;;;;;;11.12;100.00;97108.75;6189818;23;20402;-80
2022/10/12 09:47:26;;;;;;;11.73;6.93;;;;;;;11.00;100.00;97105.94;6214318;23;20433;-80
2022/10/12 09:49:57;;;;;;;9.63;6.83;;;;;;;10.98;100.00;97094.88;6215119;23;20521;-80
2022/10/12 09:52:29;;;;;;;14.40;6.93;;;;;;;11.02;100.00;97101.09;6215382;23;20417;-80
2022/10/12 09:55:02;;;;;;;9.00;5.83;;;;;;;10.76;100.00;97071.19;6215646;23;20370;-79
2022/10/12 09:57:36;;;;;;;8.63;6.43;;;;;;;10.65;100.00;97041.59;6214975;23;20461;-80
2022/10/12 10:00:23;;;;;;;9.40;6.50;;;;;;;11.35;100.00;97103.28;6214725;23;20456;-80
2022/10/12 10:02:51;;;;;;;9.97;6.50;;;;;;;11.38;100.00;97095.53;6192478;23;20433;-80
2022/10/12 10:05:26;;;;;;;14.03;6.67;;;;;;;11.33;100.00;97079.00;6228107;23;20998;-80
2022/10/12 10:08:13;;;;;;;11.43;6.90;;;;;;;11.76;100.00;97071.81;6202512;23;20386;-79
2022/10/12 10:11:00;;;;;;;8.90;6.50;;;;;;;11.74;100.00;97063.38;6227686;23;20402;-80
2022/10/12 10:13:32;;;;;;;9.33;5.53;;;;;;;11.80;100.00;97074.63;6228256;23;20848;-80
2022/10/12 10:16:08;;;;;;;12.47;5.97;;;;;;;11.28;100.00;97020.94;6226810;23;20497;-80
2022/10/12 10:18:35;;;;;;;10.83;7.50;;;;;;;12.15;100.00;97088.56;6215689;23;20402;-81
2022/10/12 10:21:05;;;;;;;10.90;7.37;;;;;;;11.72;100.00;97054.97;6217251;23;20413;-80
2022/10/12 10:23:43;;;;;;;9.70;6.43;;;;;;;11.99;100.00;97074.25;6215496;23;20464;-80
2022/10/12 10:26:17;;;;;;;10.93;6.50;;;;;;;12.18;100.00;97093.25;6215864;23;20410;-80
2022/10/12 10:28:55;;;;;;;20.40;6.50;;;;;;;12.32;100.00;97040.78;6215414;23;20449;-80
2022/10/12 10:31:26;;;;;;;9.60;6.80;;;;;;;12.39;100.00;97067.56;6216092;23;20783;-80
2022/10/12 10:34:09;;;;;;;10.60;7.63;;;;;;;12.47;100.00;97089.06;6215535;23;20931;-80
2022/10/12 10:36:49;;;;;;;9.67;7.10;;;;;;;12.65;100.00;97083.34;6217001;23;20844;-81
2022/10/12 10:39:46;;;;;;;12.77;7.10;;;;;;;12.75;100.00;97065.53;6220124;23;20440;-80
2022/10/12 10:42:19;;;;;;;12.33;7.17;;;;;;;12.65;100.00;97064.00;6216580;23;20449;-81
2022/10/12 10:44:49;;;;;;;10.90;7.07;;;;;;;12.57;100.00;97091.38;6193850;23;20418;-81
2022/10/12 10:47:17;;;;;;;9.50;7.80;;;;;;;12.61;100.00;97071.06;6192633;23;20468;-80
2022/10/12 10:50:12;;;;;;;12.87;7.87;;;;;;;13.14;100.00;97090.88;6217557;23;20485;-80
2022/10/12 10:52:39;;;;;;;11.10;7.47;;;;;;;13.34;100.00;97062.78;6208634;23;20421;-80
2022/10/12 10:55:09;;;;;;;10.30;6.93;;;;;;;13.37;100.00;97078.84;6217314;23;20477;-81
2022/10/12 10:57:45;;;;;;;10.50;9.10;;;;;;;12.92;100.00;97060.09;6192279;23;20453;-81
2022/10/12 11:00:18;;;;;;;9.03;7.13;;;;;;;13.08;100.00;97073.56;6192144;23;20424;-81
2022/10/12 11:03:15;;;;;;;13.67;8.00;;;;;;;12.68;100.00;97050.88;6217157;23;20413;-81
2022/10/12 11:05:49;;;;;;;9.10;7.20;;;;;;;12.96;100.00;97080.38;6217468;23;20856;-81
2022/10/12 11:08:25;;;;;;;10.50;8.10;;;;;;;13.22;100.00;97043.03;6216829;23;20363;-80
2022/10/12 11:11:01;;;;;;;9.10;7.10;;;;;;;12.76;100.00;96990.88;6217005;23;20374;-80
2022/10/12 11:13:42;;;;;;;9.73;7.27;;;;;;;13.52;100.00;97078.25;6215958;23;20405;-81
2022/10/12 11:16:27;;;;;;;13.63;7.80;;;;;;;13.41;100.00;97071.00;6216390;23;20394;-81
2022/10/12 11:18:58;;;;;;;11.17;7.90;;;;;;;13.09;100.00;97069.81;6191594;23;20414;-81
2022/10/12 11:21:42;;;;;;;7.70;6.73;;;;;;;13.49;100.00;97075.47;6191897;23;20401;-81
2022/10/12 11:24:16;;;;;;;8.00;6.47;;;;;;;13.26;100.00;97006.75;6191063;23;20513;-81
2022/10/12 11:26:48;;;;;;;15.90;7.83;;;;;;;13.46;100.00;97038.91;6217792;23;20366;-81
2022/10/12 11:29:16;;;;;;;9.27;7.90;;;;;;;13.64;100.00;97063.47;6215755;23;20426;-81
2022/10/12 11:31:55;;;;;;;10.40;7.93;;;;;;;13.84;100.00;97054.66;6216008;23;20405;-81
2022/10/12 11:34:24;;;;;;;15.20;7.03;;;;;;;13.60;100.00;97034.88;6216282;23;20495;-81
2022/10/12 11:36:54;;;;;;;12.40;8.60;;;;;;;14.13;100.00;97064.34;6191069;23;20397;-82